Flight Track Log - Related Links

Times and Time Zones

All times are in EDT time to prevent confusion due to time zone crossing. See the FLG3432 flight status page for this flight to view local times or setup timezone preferences in your user account.

Time Position Orientation Groundspeed Altitude Reporting Facility
EDT Latitude Longitude Course Direction KTS MPH feet Rate Location/Type
Sat 06:32:29 AM 42.7297 -73.8081 284° West 145 167 1,100  Level Boston Center
Sat 06:33:35 AM 42.7022 -73.8442 224° Southwest 204 235 3,300 2,123 Climbing Boston Center
Sat 06:34:39 AM 42.7600 -73.9022 324° Northwest 257 296 5,700 2,419 Climbing Boston Center
Sat 06:35:00 AM 42.8319 -74.3242 282° West  Level FlightAware Approximate
Sat 06:35:39 AM 42.8175 -73.9631 322° Northwest 262 302 8,300  Level Boston Center
Sat 06:36:00 AM 42.8541 -74.4577 283° West  Level FlightAware Approximate
Sat 06:36:39 AM 42.8792 -74.0239 324° Northwest 267 307 11,000  Level Boston Center
Sat 06:37:00 AM 42.8867 -74.5852 284° West  Level FlightAware Approximate
Sat 06:37:39 AM 42.9367 -74.0850 322° Northwest 286 329 12,200  Level Boston Center
Sat 06:38:39 AM 43.0186 -74.1722 322° Northwest 320 368 14,300 2,000 Climbing Boston Center
Sat 06:39:39 AM 43.0883 -74.2453 323° Northwest 349 402 16,200 1,850 Climbing Boston Center
Sat 06:40:39 AM 43.1133 -74.3797 284° West 321 369 18,000 1,800 Climbing Boston Center
Sat 06:41:39 AM 43.1172 -74.5136 272° West 342 394 19,800 1,700 Climbing Boston Center
Sat 06:42:39 AM 43.1231 -74.6506 273° West 355 409 21,400 1,550 Climbing Boston Center
Sat 06:43:39 AM 43.1264 -74.7900 272° West 365 420 22,900 1,500 Climbing Boston Center
Sat 06:44:39 AM 43.1297 -74.9322 272° West 370 426 24,400 1,400 Climbing Boston Center
Sat 06:45:39 AM 43.1347 -75.0778 273° West 375 432 25,700 1,350 Climbing Boston Center
Sat 06:46:39 AM 43.1397 -75.2231 273° West 375 432 27,100 1,350 Climbing Boston Center
Sat 06:47:39 AM 43.1422 -75.3711 271° West 386 444 28,400 1,050 Climbing Boston Center
Sat 06:48:39 AM 43.1450 -75.5022 272° West 386 444 29,200 1,050 Climbing Boston Center
Sat 06:49:39 AM 43.1492 -75.6533 272° West 386 444 30,500 1,500 Climbing Boston Center
Sat 06:50:39 AM 43.1533 -75.7958 272° West 386 444 32,200 1,450 Climbing Boston Center
Sat 06:51:39 AM 43.1556 -75.9356 271° West 381 438 33,400 715 Climbing Boston Center
Sat 06:53:10 AM 43.1594 -76.1656 271° West 376 433 34,000 238 Climbing Cleveland Center
Sat 06:54:10 AM 43.1525 -76.3142 266° West 388 447 34,000  Level Cleveland Center
Sat 06:55:10 AM 43.1414 -76.4628 264° West 394 453 34,000  Level Cleveland Center
Sat 06:56:10 AM 43.1258 -76.6119 262° West 394 453 34,000  Level Cleveland Center
Sat 06:57:10 AM 43.1139 -76.7550 264° West 394 453 34,000  Level Cleveland Center
Sat 06:58:10 AM 43.1000 -76.9064 263° West 394 453 34,000 350 Level Cleveland Center
Sat 06:59:10 AM 43.0858 -77.0522 262° West 394 453 34,700 1,000 Climbing Cleveland Center
Sat 07:00:10 AM 43.0733 -77.1925 263° West 383 441 36,000 650 Climbing Cleveland Center
Sat 07:01:10 AM 43.0606 -77.3322 263° West 378 435 36,000  Level Cleveland Center
Sat 07:02:10 AM 43.0481 -77.4778 263° West 378 435 36,000  Level Cleveland Center
Sat 07:03:10 AM 43.0331 -77.6208 262° West 383 441 36,000  Level Cleveland Center
Sat 07:04:10 AM 43.0194 -77.7519 262° West 393 452 36,000  Level Cleveland Center
Sat 07:05:10 AM 43.0083 -77.8944 264° West 388 447 36,000  Level Cleveland Center
Sat 07:06:10 AM 42.9928 -78.0372 262° West 388 447 36,000  Level Cleveland Center
Sat 07:07:10 AM 42.9792 -78.1767 262° West 388 447 36,000  Level Cleveland Center
Sat 07:08:10 AM 42.9653 -78.3192 262° West 388 447 36,000  Level Cleveland Center
Sat 07:09:10 AM 42.9492 -78.4586 261° West 388 447 36,000  Level Cleveland Center
Sat 07:10:10 AM 42.9372 -78.6067 264° West 393 452 36,000  Level Cleveland Center
Sat 07:11:10 AM 42.9625 -78.7478 284° West 384 442 36,000  Level Cleveland Center
Sat 07:12:10 AM 43.0064 -78.8911 293° West 395 455 36,000  Level Cleveland Center
Sat 07:12:34 AM 43.0167 -78.9500 283° West 410 472 36,000  Level Toronto Center
Sat 07:13:34 AM 43.0667 -79.0833 297° West 410 472 36,000  Level Toronto Center
Sat 07:14:34 AM 43.1000 -79.2167 289° West 410 472 36,000  Level Toronto Center
Sat 07:15:34 AM 43.1500 -79.3667 295° West 410 472 36,000  Level Toronto Center
Sat 07:16:35 AM 43.1833 -79.5167 287° West 410 472 36,000  Level Toronto Center
Sat 07:17:34 AM 43.2167 -79.6833 285° West 410 472 36,000  Level Toronto Center
Sat 07:18:34 AM 43.2500 -79.8333 287° West 410 472 36,000  Level Toronto Center
Sat 07:19:34 AM 43.2667 -79.9833 279° West 420 483 36,000  Level Toronto Center
Sat 07:20:34 AM 43.3000 -80.1333 287° West 420 483 36,000  Level Toronto Center
Sat 07:21:34 AM 43.3333 -80.3000 285° West 420 483 36,000  Level Toronto Center
Sat 07:22:34 AM 43.3667 -80.4333 289° West 420 483 36,000  Level Toronto Center
Sat 07:23:34 AM 43.4000 -80.6000 285° West 420 483 36,000  Level Toronto Center
Sat 07:24:34 AM 43.4167 -80.7333 280° West 410 472 36,000  Level Toronto Center
Sat 07:25:34 AM 43.4333 -80.9000 278° West 410 472 36,000  Level Toronto Center
Sat 07:26:34 AM 43.4667 -81.0500 287° West 420 483 36,000  Level Toronto Center
Sat 07:27:34 AM 43.5000 -81.2167 285° West 410 472 36,000  Level Toronto Center
Sat 07:28:34 AM 43.5333 -81.3500 289° West 410 472 36,000  Level Toronto Center
Sat 07:29:34 AM 43.5500 -81.5167 278° West 410 472 36,000  Level Toronto Center
Sat 07:30:35 AM 43.5833 -81.6667 287° West 400 460 36,000  Level Toronto Center
Sat 07:31:34 AM 43.6167 -81.8000 289° West 410 472 36,000  Level Toronto Center
Sat 07:32:34 AM 43.6333 -81.9667 278° West 410 472 36,000  Level Toronto Center
Sat 07:33:34 AM 43.6500 -82.1167 279° West 410 472 36,000  Level Toronto Center
Sat 07:34:34 AM 43.6833 -82.2833 286° West 420 483 36,000  Level Toronto Center
Sat 07:35:35 AM 43.7167 -82.4167 289° West 410 472 36,000  Level Toronto Center
Sat 07:36:34 AM 43.7500 -82.5833 286° West 410 472 36,000  Level Toronto Center
Sat 07:37:34 AM 43.7667 -82.7333 279° West 400 460 36,000  Level Toronto Center
Sat 07:38:34 AM 43.7833 -82.8833 279° West 400 460 36,000  Level Toronto Center
Sat 07:39:34 AM 43.8167 -83.0333 287° West 400 460 36,000  Level Toronto Center
Sat 07:40:34 AM 43.8500 -83.2000 286° West 410 472 36,000  Level Toronto Center
Sat 07:40:52 AM 43.8578 -83.2150 306° West 407 468 36,000  Level Minneapolis Center
Sat 07:41:52 AM 43.8814 -83.3703 282° West 412 474 36,000  Level Minneapolis Center
Sat 07:42:53 AM 43.9125 -83.5503 284° West 413 475 36,000  Level Minneapolis Center
Sat 07:43:53 AM 43.9369 -83.7083 282° West 417 480 36,000  Level Minneapolis Center
Sat 07:44:54 AM 43.9617 -83.8644 282° West 416 479 36,000  Level Minneapolis Center
Sat 07:45:54 AM 43.9867 -84.0178 283° West 411 473 36,000  Level Minneapolis Center
Sat 07:46:55 AM 44.0097 -84.1661 282° West 398 458 36,000  Level Minneapolis Center
Sat 07:47:55 AM 44.0331 -84.3117 283° West 389 448 36,000  Level Minneapolis Center
Sat 07:48:56 AM 44.0542 -84.4561 282° West 384 442 36,000  Level Minneapolis Center
Sat 07:49:56 AM 44.0764 -84.5994 282° West 380 437 36,000  Level Minneapolis Center
Sat 07:50:57 AM 44.0978 -84.7467 281° West 386 444 36,000  Level Minneapolis Center
Sat 07:51:58 AM 44.1200 -84.8967 282° West 392 451 36,000  Level Minneapolis Center
Sat 07:52:58 AM 44.1431 -85.0461 282° West 394 453 36,000  Level Minneapolis Center
Sat 07:53:59 AM 44.1661 -85.1956 282° West 395 455 36,000  Level Minneapolis Center
Sat 07:54:59 AM 44.1869 -85.3467 281° West 396 456 36,000  Level Minneapolis Center
Sat 07:56:00 AM 44.2078 -85.4972 281° West 396 456 36,000  Level Minneapolis Center
Sat 07:57:00 AM 44.2286 -85.6458 281° West 394 453 36,000  Level Minneapolis Center
Sat 07:58:13 AM 44.2489 -85.7928 281° West 389 448 36,000  Level Minneapolis Center
Sat 07:59:14 AM 44.2739 -85.9731 281° West 392 451 36,000  Level Minneapolis Center
Sat 08:00:16 AM 44.2950 -86.1253 281° West 397 457 36,000  Level Minneapolis Center
Sat 08:01:17 AM 44.3153 -86.2797 280° West 403 464 36,000  Level Minneapolis Center
Sat 08:02:17 AM 44.3356 -86.4317 281° West 398 458 36,000  Level Minneapolis Center
Sat 08:03:18 AM 44.3553 -86.5847 280° West 398 458 36,000  Level Minneapolis Center
Sat 08:04:18 AM 44.3761 -86.7381 281° West 401 461 36,000  Level Minneapolis Center
Sat 08:05:19 AM 44.3961 -86.8906 280° West 399 459 36,000  Level Minneapolis Center
Sat 08:06:20 AM 44.4181 -87.0711 280° West 394 453 36,000  Level Minneapolis Center
Sat 08:07:20 AM 44.4361 -87.2072 281° West 393 452 36,000  Level Minneapolis Center
Sat 08:08:21 AM 44.4558 -87.3731 280° West 395 455 36,000  Level Minneapolis Center
Sat 08:09:21 AM 44.4750 -87.5242 280° West 395 455 36,000  Level Minneapolis Center
Sat 08:10:22 AM 44.4933 -87.6775 280° West 398 458 36,000  Level Minneapolis Center
Sat 08:11:23 AM 44.5131 -87.8325 280° West 402 463 36,000  Level Minneapolis Center
Sat 08:12:23 AM 44.5281 -87.9717 279° West 401 461 36,000 -50 Level Minneapolis Center
Sat 08:13:24 AM 44.5497 -88.1483 280° West 396 456 35,900 -590 Descending Minneapolis Center
Sat 08:14:25 AM 44.5669 -88.2994 279° West 395 455 34,800 -1,033 Descending Minneapolis Center
Sat 08:15:26 AM 44.5839 -88.4439 279° West 380 437 33,800 -992 Descending Minneapolis Center
Sat 08:16:26 AM 44.5997 -88.5767 280° West 353 406 32,800 -893 Descending Minneapolis Center
Sat 08:17:27 AM 44.6156 -88.7100 280° West 348 400 32,000 -393 Descending Minneapolis Center
Sat 08:18:28 AM 44.6311 -88.8564 279° West 373 429 32,000  Level Minneapolis Center
Sat 08:19:29 AM 44.6494 -89.0075 280° West 389 448 32,000  Level Minneapolis Center
Sat 08:20:29 AM 44.6656 -89.1569 279° West 388 447 32,000  Level Minneapolis Center
Sat 08:21:30 AM 44.6811 -89.3022 279° West 381 438 32,000  Level Minneapolis Center
Sat 08:22:31 AM 44.6969 -89.4458 279° West 373 429 32,000  Level Minneapolis Center
Sat 08:23:32 AM 44.7122 -89.5914 278° West 375 432 32,000  Level Minneapolis Center
Sat 08:24:33 AM 44.7278 -89.7392 278° West 381 438 32,000  Level Minneapolis Center
Sat 08:25:34 AM 44.7433 -89.8853 279° West 379 436 32,000  Level Minneapolis Center
Sat 08:26:34 AM 44.7589 -90.0333 278° West 382 440 32,000  Level Minneapolis Center
Sat 08:27:35 AM 44.7736 -90.1803 278° West 380 437 32,000  Level Minneapolis Center
Sat 08:28:36 AM 44.7903 -90.3506 278° West 379 436 32,000 -49 Level Minneapolis Center
Sat 08:29:37 AM 44.8053 -90.4958 278° West 376 433 31,900 -738 Descending Minneapolis Center
Sat 08:30:38 AM 44.8172 -90.6233 278° West 373 429 30,500 -1,475 Descending Minneapolis Center
Sat 08:31:39 AM 44.8311 -90.7664 278° West 370 426 28,900 -1,525 Descending Minneapolis Center
Sat 08:32:40 AM 44.8444 -90.9003 278° West 352 405 27,400 -1,574 Descending Minneapolis Center
Sat 08:33:41 AM 44.8578 -91.0514 277° West 336 387 25,700 -1,574 Descending Minneapolis Center
Sat 08:34:42 AM 44.8689 -91.1769 277° West 329 379 24,200 -1,475 Descending Minneapolis Center
Sat 08:35:43 AM 44.8797 -91.2972 277° West 321 369 22,700 -1,475 Descending Minneapolis Center
Sat 08:36:44 AM 44.8900 -91.4128 277° West 309 356 21,200 -1,475 Descending Minneapolis Center
Sat 08:37:45 AM 44.9031 -91.5253 279° West 296 341 19,700 -1,475 Descending Minneapolis Center
Sat 08:38:46 AM 44.9292 -91.6417 288° West 306 352 18,200 -1,475 Descending Minneapolis Center
Sat 08:39:47 AM 44.9497 -91.7533 285° West 299 344 16,700 -1,475 Descending Minneapolis Center
Sat 08:40:48 AM 44.9717 -91.8672 285° West 302 348 15,200 -1,377 Descending Minneapolis Center
Sat 08:41:49 AM 44.9919 -91.9806 284° West 299 344 13,900 -1,279 Descending Minneapolis Center
Sat 08:42:50 AM 45.0125 -92.0919 285° West 295 339 12,600 -1,230 Descending Minneapolis Center
Sat 08:43:51 AM 45.0333 -92.2019 285° West 292 336 11,400 -836 Descending Minneapolis Center
Sat 08:44:52 AM 45.0408 -92.3383 274° West 295 339 10,900 -443 Descending Minneapolis Center
Sat 08:45:53 AM 45.0197 -92.4464 255° West 284 327 10,500 -1,131 Descending Minneapolis Center
Sat 08:46:54 AM 44.9742 -92.5336 234° Southwest 275 316 8,600 -1,623 Descending Minneapolis Center
Sat 08:47:55 AM 44.9300 -92.6197 234° Southwest 272 313 7,200 -787 Descending Minneapolis Center
Sat 08:48:56 AM 44.8875 -92.7039 235° Southwest 265 305 7,000 -98 Descending Minneapolis Center
Sat 08:49:57 AM 44.8439 -92.7881 234° Southwest 266 306 7,000 -295 Level Minneapolis Center
Sat 08:50:58 AM 44.8197 -92.8603 245° Southwest 195 224 6,400 -984 Descending Minneapolis Center
Sat 08:51:59 AM 44.8158 -92.9314 266° West 182 209 5,000 -1,426 Descending Minneapolis Center
Sat 08:53:00 AM 44.8169 -92.9986 271° West 174 200 3,500 -1,475 Descending Minneapolis Center

Login

Don't have an account? Register now (free) for customized features, flight alerts, and more!